May 27, 2022

Time Code Weather Temp. Visibility Ceiling Wind METAR/SPECI
2:00 pm
V
75 °F 6¼ mi+ - 280° 280° 14 kt METAR LFMK 271200Z AUTO 28014KT 9999 SCT045 24/12 Q1023 TEMPO 27016G26KT
1:30 pm
V
73 °F 6¼ mi+ 4,300 ft 280° 280° 14 kt METAR LFMK 271130Z AUTO 28014KT 240V300 9999 BKN043 23/13 Q1023 TEMPO 27016G26KT
1:00 pm
V
72 °F 6¼ mi+ 4,300 ft 290° 290° 16 kt METAR LFMK 271100Z AUTO 29016KT 9999 BKN043 22/12 Q1023 TEMPO 27016G26KT
12:30 pm
V
72 °F 6¼ mi+ 4,100 ft 280° 280° 17 kt METAR LFMK 271030Z AUTO 28017KT 250V310 9999 BKN041 BKN048 22/13 Q1024 TEMPO 27016G26KT
12:00 pm
V
70 °F 6¼ mi+ 3,700 ft 280° 280° 14 kt METAR LFMK 271000Z AUTO 28014KT 9999 BKN037 BKN043 21/12 Q1024 TEMPO 27016G26KT
11:30 am
V
70 °F 6¼ mi+ 4,400 ft 280° 280° 15 - 25 kt METAR LFMK 270930Z AUTO 28015G25KT 9999 SCT034 BKN044 21/13 Q1024 NOSIG
11:00 am
V
68 °F 6¼ mi+ - 280° 280° 16 kt METAR LFMK 270900Z AUTO 28016KT 9999 FEW029 20/13 Q1024 TEMPO 27016G26KT
10:30 am
V
68 °F 6¼ mi+ - 280° 280° 16 kt METAR LFMK 270830Z AUTO 28016KT 9999 FEW022 20/13 Q1024 TEMPO 27015G25KT
10:00 am
V
66 °F 6¼ mi+ - 290° 290° 14 kt METAR LFMK 270800Z AUTO 29014KT 9999 FEW021 19/13 Q1025 TEMPO 27015G25KT
9:30 am
V
64 °F 6¼ mi+ - 280° 280° 14 kt METAR LFMK 270730Z AUTO 28014KT CAVOK 18/13 Q1024 TEMPO 27015G25KT
9:00 am
V
63 °F 6¼ mi+ - 270° 270° 11 kt METAR LFMK 270700Z AUTO 27011KT 230V290 9999 FEW054 17/12 Q1025 TEMPO 27015G25KT
8:30 am
V
59 °F 6¼ mi+ 5,200 ft 270° 270° 12 kt METAR LFMK 270630Z AUTO 27012KT 9999 BKN052 15/12 Q1025 TEMPO 27015G25KT
8:00 am
V
59 °F 6¼ mi+ 5,400 ft 270° 270° 10 kt METAR LFMK 270600Z AUTO 27010KT 240V300 9999 BKN054 15/12 Q1024 TEMPO 27015G25KT BKN013
7:30 am
V
57 °F 6¼ mi+ 5,600 ft 270° 270° 8 kt METAR LFMK 270530Z AUTO 27008KT 9999 BKN056 14/12 Q1025 TEMPO 27015G25KT BKN013
7:00 am
V
55 °F 6¼ mi+ - 260° 260° 6 kt METAR LFMK 270500Z AUTO 26006KT CAVOK 13/12 Q1024 TEMPO 27015G25KT BKN013
6:30 am
V
57 °F 6¼ mi+ - 270° 270° 9 kt METAR LFMK 270430Z AUTO 27009KT CAVOK 14/12 Q1024 TEMPO 27015G25KT BKN013
6:00 am
V
57 °F 6¼ mi+ - 260° 260° 7 kt METAR LFMK 270400Z AUTO 26007KT 230V290 CAVOK 14/12 Q1024 TEMPO 27015G25KT BKN013
5:30 am
V
57 °F 6¼ mi+ - 270° 270° 8 kt METAR LFMK 270330Z AUTO 27008KT CAVOK 14/12 Q1024 TEMPO 27015G25KT BKN013
5:00 am
V
57 °F 6¼ mi+ - 260° 260° 8 kt METAR LFMK 270300Z AUTO 26008KT CAVOK 14/12 Q1024 TEMPO 27015G25KT BKN013
4:30 am
V
57 °F 6¼ mi+ - 270° 270° 9 kt METAR LFMK 270230Z AUTO 27009KT CAVOK 14/12 Q1025 TEMPO 27015G25KT BKN013
4:00 am
V
59 °F 6¼ mi+ - 270° 270° 9 kt METAR LFMK 270200Z AUTO 27009KT CAVOK 15/12 Q1025
3:30 am
V
59 °F 6¼ mi+ - 270° 270° 9 kt METAR LFMK 270130Z AUTO 27009KT 230V290 9999 FEW052 15/12 Q1025
3:00 am
V
59 °F 6¼ mi+ 5,400 ft 270° 270° 9 kt METAR LFMK 270100Z AUTO 27009KT 9999 BKN054 15/12 Q1025
2:30 am
V
59 °F 6¼ mi+ 5,400 ft 260° 260° 9 kt METAR LFMK 270030Z AUTO 26009KT 230V290 9999 BKN054 15/12 Q1025
2:00 am
V
59 °F 6¼ mi+ - 270° 270° 8 kt METAR LFMK 270000Z AUTO 27008KT 9999 FEW052 15/12 Q1026
1:30 am
V
59 °F 6¼ mi+ - 260° 260° 9 kt METAR LFMK 262330Z AUTO 26009KT CAVOK 15/12 Q1026
1:00 am
V
59 °F 6¼ mi+ - 260° 260° 9 kt METAR LFMK 262300Z AUTO 26009KT CAVOK 15/12 Q1026
12:30 am
V
59 °F 6¼ mi+ - 260° 260° 8 kt METAR LFMK 262230Z AUTO 26008KT 230V300 CAVOK 15/12 Q1026
12:00 am
V
61 °F 6¼ mi+ - 270° 270° 9 kt METAR LFMK 262200Z AUTO 27009KT CAVOK 16/12 Q1026

May 26, 2022

Time Code Weather Temp. Visibility Ceiling Wind METAR/SPECI
11:30 pm
V
61 °F 6¼ mi+ - 260° 260° 8 kt METAR LFMK 262130Z AUTO 26008KT CAVOK 16/12 Q1026
11:00 pm
V
61 °F 6¼ mi+ 6,200 ft 260° 260° 8 kt METAR LFMK 262100Z AUTO 26008KT 230V290 9999 BKN062 16/12 Q1026
10:30 pm
V
63 °F 6¼ mi+ 6,200 ft 270° 270° 8 kt METAR LFMK 262030Z AUTO 27008KT 9999 OVC062 17/12 Q1026
10:00 pm
V
63 °F 6¼ mi+ 6,400 ft 260° 260° 7 kt METAR LFMK 262000Z AUTO 26007KT 230V300 9999 BKN064 17/12 Q1026
9:30 pm
V
63 °F 6¼ mi+ - 270° 270° 8 kt METAR LFMK 261930Z AUTO 27008KT 240V300 9999 FEW062 17/12 Q1025
9:00 pm
V
63 °F 6¼ mi+ - 270° 270° 9 kt METAR LFMK 261900Z AUTO 27009KT 9999 SCT060 17/12 Q1025
8:30 pm
V
64 °F 6¼ mi+ - 280° 280° 11 kt METAR LFMK 261830Z AUTO 28011KT 9999 FEW058 18/12 Q1025
8:00 pm
V
64 °F 6¼ mi+ 5,600 ft 280° 280° 13 kt METAR LFMK 261800Z AUTO 28013KT 9999 OVC056 18/12 Q1025 NOSIG
7:30 pm
V
66 °F 6¼ mi+ 5,400 ft 280° 280° 13 kt METAR LFMK 261730Z AUTO 28013KT 9999 OVC054 19/12 Q1025 NOSIG
7:00 pm
V
66 °F 6¼ mi+ 5,600 ft 290° 290° 13 kt METAR LFMK 261700Z AUTO 29013KT 9999 OVC056 19/12 Q1025 NOSIG
6:30 pm
V
66 °F 6¼ mi+ 5,600 ft 290° 290° 15 kt METAR LFMK 261630Z AUTO 29015KT 9999 FEW045 OVC056 19/11 Q1025 NOSIG
6:00 pm
V
66 °F 6¼ mi+ 4,300 ft 290° 290° 13 kt METAR LFMK 261600Z AUTO 29013KT 9999 OVC043 19/12 Q1025 NOSIG
5:30 pm
V
66 °F 6¼ mi+ 5,200 ft 290° 290° 18 kt METAR LFMK 261530Z AUTO 29018KT 9999 OVC052 19/11 Q1025 NOSIG
5:00 pm
V
68 °F 6¼ mi+ 4,500 ft 290° 290° 15 kt METAR LFMK 261500Z AUTO 29015KT 9999 FEW038 BKN045 OVC052 20/11 Q1025 NOSIG
4:30 pm
V
68 °F 6¼ mi+ 5,200 ft 300° 300° 15 kt METAR LFMK 261430Z AUTO 30015KT 9999 OVC052 20/11 Q1025 TEMPO 29020G30KT
4:00 pm
V
70 °F 6¼ mi+ 5,600 ft 300° 300° 16 kt METAR LFMK 261400Z AUTO 30016KT 9999 SCT041 SCT047 OVC056 21/11 Q1025 TEMPO 29020G30KT
3:30 pm
V
68 °F 6¼ mi+ 5,800 ft 290° 290° 14 kt METAR LFMK 261330Z AUTO 29014KT 9999 SCT042 SCT048 BKN058 20/11 Q1025 TEMPO 29020G30KT
3:00 pm
V
68 °F 6¼ mi+ 5,200 ft 290° 290° 17 kt METAR LFMK 261300Z AUTO 29017KT 250V310 9999 SCT038 OVC052 20/11 Q1026 TEMPO 29020G30KT
2:30 pm
V
66 °F 6¼ mi+ 5,600 ft 280° 280° 18 kt METAR LFMK 261230Z AUTO 28018KT 9999 OVC056 19/10 Q1026 TEMPO 29020G30KT
2:00 pm
V
68 °F 6¼ mi+ 5,600 ft 290° 290° 15 kt METAR LFMK 261200Z AUTO 29015KT 9999 FEW036 SCT048 BKN056 20/11 Q1026 TEMPO 29020G30KT
1:30 pm
V
66 °F 6¼ mi+ 5,000 ft 300° 300° 15 kt METAR LFMK 261130Z AUTO 30015KT 9999 FEW038 BKN050 19/11 Q1026 TEMPO 29020G30KT
1:00 pm
V
66 °F 6¼ mi+ 4,400 ft 290° 290° 15 kt METAR LFMK 261100Z AUTO 29015KT 9999 BKN044 OVC054 19/10 Q1026 TEMPO 29020G30KT
12:30 pm
V
66 °F 6¼ mi+ 4,900 ft 290° 290° 16 kt METAR LFMK 261030Z AUTO 29016KT 9999 FEW039 BKN049 BKN058 19/10 Q1026 TEMPO 29020G30KT
12:00 pm
V
68 °F 6¼ mi+ - 280° 280° 17 kt METAR LFMK 261000Z AUTO 28017KT 9999 FEW037 SCT050 20/10 Q1026 TEMPO 29020G30KT
11:30 am
V
66 °F 6¼ mi+ 4,900 ft 280° 280° 15 kt METAR LFMK 260930Z AUTO 28015KT 9999 FEW038 BKN049 19/11 Q1026 TEMPO 29020G30KT
11:00 am
V
66 °F 6¼ mi+ - 290° 290° 17 kt METAR LFMK 260900Z AUTO 29017KT 260V320 9999 FEW033 SCT041 19/10 Q1026 TEMPO 29020G30KT
10:30 am
M
63 °F 6¼ mi+ 2,900 ft 280° 280° 15 kt METAR LFMK 260830Z AUTO 28015KT 9999 BKN029 17/10 Q1026 TEMPO 29020G30KT
10:00 am
M
63 °F 6¼ mi+ 2,900 ft 280° 280° 14 kt METAR LFMK 260800Z AUTO 28014KT 240V300 9999 SCT022 BKN029 17/11 Q1026 TEMPO 29020G30KT
9:30 am
M
61 °F 6¼ mi+ 1,900 ft 280° 280° 15 kt METAR LFMK 260730Z AUTO 28015KT 9999 BKN019 16/11 Q1026 TEMPO 29020G30KT
9:00 am
M
61 °F 6¼ mi+ 1,700 ft 280° 280° 15 kt METAR LFMK 260700Z AUTO 28015KT 9999 BKN017 BKN052 16/11 Q1026 TEMPO 29020G30KT
8:30 am
M
59 °F 6¼ mi+ 1,800 ft 280° 280° 15 kt METAR LFMK 260630Z AUTO 28015KT 9999 BKN018 BKN050 15/10 Q1026 TEMPO 29020G30KT
8:00 am
V
59 °F 6¼ mi+ 6,000 ft 280° 280° 13 kt METAR LFMK 260600Z AUTO 28013KT 250V310 9999 SCT017 SCT050 BKN060 15/11 Q1026 TEMPO 29020G30KT
7:30 am
M
57 °F 6¼ mi+ 2,000 ft 280° 280° 11 kt METAR LFMK 260530Z AUTO 28011KT 9999 BKN020 BKN052 BKN064 14/11 Q1026 TEMPO 29020G30KT
7:00 am
V
57 °F 6¼ mi+ 5,200 ft 270° 270° 8 kt METAR LFMK 260500Z AUTO 27008KT 250V310 9999 BKN052 BKN068 14/11 Q1026 TEMPO 29020G30KT
6:30 am
V
55 °F 6¼ mi+ 7,000 ft 270° 270° 8 kt METAR LFMK 260430Z AUTO 27008KT 9999 SCT049 BKN070 13/10 Q1026 TEMPO 29020G30KT
6:00 am
V
55 °F 6¼ mi+ - 280° 280° 9 kt METAR LFMK 260400Z AUTO 28009KT CAVOK 13/10 Q1025 TEMPO 29020G30KT
5:30 am
V
54 °F 6¼ mi+ - 280° 280° 9 kt METAR LFMK 260330Z AUTO 28009KT CAVOK 12/10 Q1025 TEMPO 29020G30KT
5:00 am
V
54 °F 6¼ mi+ - 290° 290° 8 kt METAR LFMK 260300Z AUTO 29008KT CAVOK 12/10 Q1025 TEMPO 29020G30KT
4:30 am
V
54 °F 6¼ mi+ - 280° 280° 9 kt METAR LFMK 260230Z AUTO 28009KT 9999 FEW072 12/10 Q1025
4:00 am
V
55 °F 6¼ mi+ 7,200 ft 280° 280° 10 kt METAR LFMK 260200Z AUTO 28010KT 9999 BKN072 13/11 Q1025
3:30 am
V
57 °F 6¼ mi+ - 280° 280° 10 kt METAR LFMK 260130Z AUTO 28010KT 9999 FEW060 14/10 Q1025
3:00 am
V
57 °F 6¼ mi+ 8,000 ft 280° 280° 10 kt METAR LFMK 260100Z AUTO 28010KT 240V300 9999 FEW060 BKN080 14/10 Q1025
2:30 am
V
57 °F 6¼ mi+ 7,800 ft 290° 290° 9 kt METAR LFMK 260030Z AUTO 29009KT 9999 FEW060 BKN078 14/10 Q1025
2:00 am
V
57 °F 6¼ mi+ 8,000 ft 280° 280° 10 kt METAR LFMK 260000Z AUTO 28010KT 9999 SCT056 BKN080 14/10 Q1025
1:30 am
V
59 °F 6¼ mi+ - 280° 280° 10 kt METAR LFMK 252330Z AUTO 28010KT 9999 FEW082 15/10 Q1025
1:00 am
V
59 °F 6¼ mi+ - 270° 270° 10 kt METAR LFMK 252300Z AUTO 27010KT 9999 SCT082 15/10 Q1025
12:30 am
V
59 °F 6¼ mi+ 8,000 ft 280° 280° 12 kt METAR LFMK 252230Z AUTO 28012KT 9999 BKN080 15/10 Q1025
12:00 am
V
59 °F 6¼ mi+ - 270° 270° 10 kt METAR LFMK 252200Z AUTO 27010KT CAVOK 15/10 Q1025

May 25, 2022

Time Code Weather Temp. Visibility Ceiling Wind METAR/SPECI
11:30 pm
V
61 °F 6¼ mi+ - 280° 280° 11 kt METAR LFMK 252130Z AUTO 28011KT CAVOK 16/10 Q1025
11:00 pm
V
61 °F 6¼ mi+ - 270° 270° 11 kt METAR LFMK 252100Z AUTO 27011KT CAVOK 16/10 Q1025
10:30 pm
V
63 °F 6¼ mi+ - 270° 270° 12 kt METAR LFMK 252030Z AUTO 27012KT CAVOK 17/09 Q1024
10:00 pm
V
63 °F 6¼ mi+ - 270° 270° 11 kt METAR LFMK 252000Z AUTO 27011KT 9999 SCT078 17/10 Q1024
9:30 pm
V
64 °F 6¼ mi+ 7,600 ft 280° 280° 15 kt METAR LFMK 251930Z AUTO 28015KT 9999 BKN076 18/09 Q1023
9:00 pm
V
64 °F 6¼ mi+ 7,800 ft 280° 280° 15 kt METAR LFMK 251900Z AUTO 28015KT 9999 BKN078 18/09 Q1023
8:30 pm
V
66 °F 6¼ mi+ 7,800 ft 280° 280° 13 kt METAR LFMK 251830Z AUTO 28013KT 9999 OVC078 19/08 Q1022 BECMG 28015G25KT
8:00 pm
V
66 °F 6¼ mi+ 7,800 ft 290° 290° 16 kt METAR LFMK 251800Z AUTO 29016KT 9999 OVC078 19/08 Q1022 BECMG 28015G25KT
7:30 pm
V
68 °F 6¼ mi+ 7,600 ft 290° 290° 16 kt METAR LFMK 251730Z AUTO 29016KT 9999 FEW054 BKN076 20/08 Q1021 BECMG 28015G25KT
7:00 pm
V
66 °F 6¼ mi+ 5,600 ft 280° 280° 16 - 27 kt METAR LFMK 251700Z AUTO 28016G27KT 9999 BKN056 BKN078 19/08 Q1021 NOSIG
6:30 pm
V
70 °F 6¼ mi+ 7,800 ft 300° 300° 16 kt METAR LFMK 251630Z AUTO 30016KT 260V320 9999 FEW056 BKN078 21/09 Q1021 BECMG 28015G25KT
6:00 pm
V
68 °F 6¼ mi+ 7,800 ft 290° 290° 15 kt METAR LFMK 251600Z AUTO 29015KT 250V310 9999 SCT054 BKN078 20/09 Q1021 BECMG 28015G25KT
5:30 pm
V
68 °F 6¼ mi+ 5,800 ft 280° 280° 15 kt METAR LFMK 251530Z AUTO 28015KT 250V310 9999 BKN058 OVC074 20/09 Q1021 BECMG 28015G25KT
5:00 pm
V
68 °F 6¼ mi+ 5,600 ft 280° 280° 16 kt METAR LFMK 251500Z AUTO 28016KT 9999 BKN056 BKN070 BKN080 20/08 Q1021 BECMG 28015G25KT
4:30 pm
V
68 °F 6¼ mi+ 5,600 ft 290° 290° 17 kt METAR LFMK 251430Z AUTO 29017KT 250V310 9999 BKN056 BKN068 20/08 Q1020 BECMG 27015G25KT
4:00 pm
V
68 °F 6¼ mi+ 6,800 ft 280° 280° 17 kt METAR LFMK 251400Z AUTO 28017KT 9999 SCT054 OVC068 20/08 Q1020 BECMG 27015G25KT
3:30 pm
V
68 °F 6¼ mi+ 7,000 ft 280° 280° 15 kt METAR LFMK 251330Z AUTO 28015KT 250V330 9999 SCT056 BKN070 20/08 Q1020 BECMG 27015G25KT
3:00 pm
V
68 °F 6¼ mi+ 6,400 ft 280° 280° 18 kt METAR LFMK 251300Z AUTO 28018KT 9999 SCT049 BKN064 20/08 Q1020 BECMG 27015G25KT
2:30 pm
V
70 °F 6¼ mi+ - 280° 280° 17 kt METAR LFMK 251230Z AUTO 28017KT 240V300 9999 FEW046 21/09 Q1020 BECMG 27015G25KT
2:00 pm
V
66 °F 6¼ mi+ 6,400 ft 290° 290° 18 kt METAR LFMK 251200Z AUTO 29018KT 260V320 9999 FEW046 BKN064 19/08 Q1020 BECMG 27015G25KT
Older data

Download our app

Easy access to all aviation weather on your mobile phone and tablet.
With many features not available on the website, like offline support and a personal airport list.

We and third parties follow your internet behavior on our website with cookies. If you continue, we assume you agree with our cookie policy. Learn more